createdAt,value
2018-12-18T00:00:47.001Z,96614.41
2018-12-18T00:01:49.523Z,96609.28
2018-12-18T00:02:52.213Z,96612.25
2018-12-18T00:03:54.703Z,96610.41
2018-12-18T00:04:57.134Z,96609.16
2018-12-18T00:05:59.595Z,96606.31
2018-12-18T00:07:02.057Z,96611.00
2018-12-18T00:08:04.609Z,96609.56
2018-12-18T00:09:07.382Z,96604.10
2018-12-18T00:10:10.000Z,96610.17
2018-12-18T00:11:12.444Z,96604.78
2018-12-18T00:12:14.922Z,96602.59
2018-12-18T00:13:17.367Z,96603.45
2018-12-18T00:14:19.826Z,96606.59
2018-12-18T00:15:22.327Z,96601.05
2018-12-18T00:16:24.763Z,96605.49
2018-12-18T00:17:27.245Z,96605.61
2018-12-18T00:18:29.708Z,96603.53
2018-12-18T00:19:32.164Z,96603.66
2018-12-18T00:20:34.607Z,96601.28
2018-12-18T00:21:37.043Z,96602.14
2018-12-18T00:22:39.485Z,96605.81
2018-12-18T00:23:41.931Z,96601.70
2018-12-18T00:24:44.374Z,96602.89
2018-12-18T00:25:46.806Z,96597.23
2018-12-18T00:26:49.237Z,96602.59
2018-12-18T00:27:51.691Z,96596.28
2018-12-18T00:28:54.171Z,96600.34
2018-12-18T00:29:56.649Z,96604.99
2018-12-18T00:30:59.083Z,96595.69
2018-12-18T00:32:01.521Z,96601.35
2018-12-18T00:33:04.123Z,96601.59
2018-12-18T00:34:06.587Z,96598.12
2018-12-18T00:35:09.025Z,96598.98
2018-12-18T00:36:11.591Z,96591.16
2018-12-18T00:37:14.027Z,96595.06
2018-12-18T00:38:16.474Z,96593.77
2018-12-18T00:39:19.057Z,96589.52
2018-12-18T00:40:21.711Z,96591.36
2018-12-18T00:41:24.146Z,96591.16
2018-12-18T00:42:26.581Z,96590.71
2018-12-18T00:43:29.027Z,96586.14
2018-12-18T00:44:31.489Z,96584.84
2018-12-18T00:45:33.926Z,96596.38
2018-12-18T00:46:36.363Z,96589.17
2018-12-18T00:47:38.802Z,96591.69
2018-12-18T00:48:41.308Z,96594.41
2018-12-18T00:49:43.827Z,96597.27
2018-12-18T00:50:46.347Z,96593.11
2018-12-18T00:51:48.893Z,96596.73
2018-12-18T00:52:51.388Z,96597.47
2018-12-18T00:53:53.839Z,96599.09
2018-12-18T00:54:56.284Z,96600.94
2018-12-18T00:55:58.731Z,96592.38
2018-12-18T00:57:01.202Z,96599.42
2018-12-18T00:58:03.640Z,96600.50
2018-12-18T00:59:06.123Z,96605.17
2018-12-18T01:00:09.353Z,96609.63
2018-12-18T01:01:11.791Z,96604.64
2018-12-18T01:02:14.223Z,96601.80
2018-12-18T01:03:16.668Z,96609.42
2018-12-18T01:04:19.126Z,96607.88
2018-12-18T01:05:21.689Z,96607.88
2018-12-18T01:06:24.112Z,96605.80
2018-12-18T01:07:26.630Z,96610.48
2018-12-18T01:08:29.059Z,96609.18
2018-12-18T01:09:31.484Z,96605.06
2018-12-18T01:10:33.944Z,96608.41
2018-12-18T01:11:36.486Z,96608.52
2018-12-18T01:12:38.933Z,96608.82
2018-12-18T01:13:41.463Z,96605.47
2018-12-18T01:14:43.984Z,96609.92
2018-12-18T01:15:46.446Z,96614.36
2018-12-18T01:16:48.887Z,96610.53
2018-12-18T01:17:51.313Z,96614.00
2018-12-18T01:18:53.750Z,96610.95
2018-12-18T01:19:56.184Z,96607.81
2018-12-18T01:20:58.631Z,96615.39
2018-12-18T01:22:01.072Z,96609.97
2018-12-18T01:23:03.506Z,96613.23
2018-12-18T01:24:05.943Z,96613.67
2018-12-18T01:25:08.383Z,96616.84
2018-12-18T01:26:10.843Z,96614.12
2018-12-18T01:27:13.280Z,96616.97
2018-12-18T01:28:15.710Z,96619.66
2018-12-18T01:29:18.143Z,96619.55
2018-12-18T01:30:20.595Z,96620.93
2018-12-18T01:31:23.036Z,96621.26
2018-12-18T01:32:25.468Z,96616.78
2018-12-18T01:33:27.898Z,96622.23
2018-12-18T01:34:30.329Z,96619.72
2018-12-18T01:35:32.790Z,96620.57
2018-12-18T01:36:35.250Z,96617.28
2018-12-18T01:37:37.696Z,96616.63
2018-12-18T01:38:40.134Z,96613.48
2018-12-18T01:39:42.568Z,96610.31
2018-12-18T01:40:45.011Z,96613.16
2018-12-18T01:41:47.475Z,96604.89
2018-12-18T01:42:49.907Z,96606.04
2018-12-18T01:43:52.350Z,96611.17
2018-12-18T01:44:54.825Z,96608.11
2018-12-18T01:45:57.268Z,96604.08
2018-12-18T01:46:59.728Z,96600.83
2018-12-18T01:48:02.193Z,96600.38
2018-12-18T01:49:04.633Z,96598.86
2018-12-18T01:50:07.242Z,96602.62
2018-12-18T01:51:09.675Z,96597.20
2018-12-18T01:52:12.126Z,96593.05
2018-12-18T01:53:14.587Z,96590.53
2018-12-18T01:54:17.047Z,96598.14
2018-12-18T01:55:19.500Z,96591.95
2018-12-18T01:56:21.956Z,96597.16
2018-12-18T01:57:24.402Z,96595.62
2018-12-18T01:58:26.828Z,96596.47
2018-12-18T01:59:29.272Z,96589.50
2018-12-18T02:00:31.712Z,96596.88
2018-12-18T02:01:34.155Z,96599.03
2018-12-18T02:02:36.615Z,96593.82
2018-12-18T02:03:39.051Z,96594.89
2018-12-18T02:04:41.483Z,96597.49
2018-12-18T02:05:43.936Z,96593.17
2018-12-18T02:06:46.393Z,96593.17
2018-12-18T02:07:48.836Z,96592.88
2018-12-18T02:08:51.272Z,96594.03
2018-12-18T02:09:53.706Z,96592.36
2018-12-18T02:10:56.147Z,96585.94
2018-12-18T02:11:58.594Z,96588.09
2018-12-18T02:13:01.036Z,96582.98
2018-12-18T02:14:03.488Z,96582.98
2018-12-18T02:15:06.226Z,96580.83
2018-12-18T02:16:09.847Z,96581.98
2018-12-18T02:17:12.309Z,96581.08
2018-12-18T02:18:14.787Z,96585.07
2018-12-18T02:19:17.228Z,96578.43
2018-12-18T02:20:19.664Z,96576.44
2018-12-18T02:21:22.615Z,96575.98
2018-12-18T02:22:25.071Z,96578.14
2018-12-18T02:23:27.614Z,96583.44
2018-12-18T02:24:30.043Z,96582.12
2018-12-18T02:25:32.480Z,96578.99
2018-12-18T02:26:34.922Z,96580.06
2018-12-18T02:27:37.386Z,96583.97
2018-12-18T02:28:39.829Z,96583.97
2018-12-18T02:29:42.278Z,96582.45
2018-12-18T02:30:44.724Z,96580.45
2018-12-18T02:31:47.190Z,96577.41
2018-12-18T02:32:49.651Z,96579.34
2018-12-18T02:33:52.090Z,96574.34
2018-12-18T02:34:54.528Z,96575.44
2018-12-18T02:35:56.960Z,96572.27
2018-12-18T02:37:00.303Z,96573.73
2018-12-18T02:38:02.774Z,96572.19
2018-12-18T02:39:06.287Z,96574.27
2018-12-18T02:40:08.716Z,96574.27
2018-12-18T02:41:11.227Z,96572.73
2018-12-18T02:42:13.663Z,96572.52
2018-12-18T02:43:16.155Z,96577.48
2018-12-18T02:44:18.644Z,96572.83
2018-12-18T02:45:21.071Z,96575.97
2018-12-18T02:46:23.535Z,96578.78
2018-12-18T02:47:25.993Z,96573.89
2018-12-18T02:48:28.628Z,96568.48
2018-12-18T02:49:31.092Z,96573.45
2018-12-18T02:50:33.523Z,96570.60
2018-12-18T02:51:35.961Z,96571.37
2018-12-18T02:52:39.204Z,96572.27
2018-12-18T02:53:41.669Z,96575.44
2018-12-18T02:54:44.153Z,96575.73
2018-12-18T02:55:46.671Z,96576.58
2018-12-18T02:56:49.109Z,96573.45
2018-12-18T02:57:51.547Z,96571.37
2018-12-18T02:58:54.022Z,96572.14
2018-12-18T02:59:56.448Z,96574.42
2018-12-18T03:00:58.893Z,96572.38
2018-12-18T03:02:01.330Z,96577.11
2018-12-18T03:03:03.863Z,96575.36
2018-12-18T03:04:06.329Z,96572.75
2018-12-18T03:05:08.769Z,96576.45
2018-12-18T03:06:11.212Z,96575.36
2018-12-18T03:07:13.657Z,96570.92
2018-12-18T03:08:16.657Z,96575.59
2018-12-18T03:09:19.198Z,96567.78
2018-12-18T03:10:21.659Z,96571.00
2018-12-18T03:11:24.089Z,96566.24
2018-12-18T03:12:26.520Z,96568.84
2018-12-18T03:13:28.971Z,96563.34
2018-12-18T03:14:31.436Z,96563.80
2018-12-18T03:15:34.014Z,96565.55
2018-12-18T03:16:36.441Z,96567.02
2018-12-18T03:17:38.887Z,96559.28
2018-12-18T03:18:41.331Z,96563.59
2018-12-18T03:19:43.785Z,96565.53
2018-12-18T03:20:46.264Z,96562.45
2018-12-18T03:21:48.692Z,96559.84
2018-12-18T03:22:51.135Z,96559.84
2018-12-18T03:23:53.764Z,96556.17
2018-12-18T03:24:56.256Z,96553.25
2018-12-18T03:25:58.683Z,96559.23
2018-12-18T03:27:01.115Z,96558.70
2018-12-18T03:28:03.570Z,96553.81
2018-12-18T03:29:06.027Z,96555.33
2018-12-18T03:30:08.466Z,96553.57
2018-12-18T03:31:11.512Z,96552.52
2018-12-18T03:32:14.655Z,96551.73
2018-12-18T03:33:17.295Z,96546.00
2018-12-18T03:34:19.770Z,96549.27
2018-12-18T03:35:22.326Z,96548.87
2018-12-18T03:36:24.890Z,96544.51
2018-12-18T03:37:27.327Z,96546.45
2018-12-18T03:38:29.772Z,96550.12
2018-12-18T03:39:32.229Z,96547.30
2018-12-18T03:40:34.660Z,96546.82
2018-12-18T03:41:37.123Z,96539.33
2018-12-18T03:42:39.574Z,96541.41
2018-12-18T03:43:42.009Z,96544.70
2018-12-18T03:44:44.612Z,96545.15
2018-12-18T03:45:47.092Z,96541.33
2018-12-18T03:46:49.561Z,96534.28
2018-12-18T03:47:52.015Z,96531.89
2018-12-18T03:48:54.459Z,96531.28
2018-12-18T03:49:56.907Z,96522.61
2018-12-18T03:50:59.358Z,96524.89
2018-12-18T03:52:01.832Z,96528.88
2018-12-18T03:53:04.273Z,96526.06
2018-12-18T03:54:06.703Z,96527.58
2018-12-18T03:55:09.281Z,96526.73
2018-12-18T03:56:11.721Z,96528.88
2018-12-18T03:57:14.188Z,96531.41
2018-12-18T03:58:16.668Z,96531.65
2018-12-18T03:59:19.109Z,96529.78
2018-12-18T04:00:21.562Z,96530.23
2018-12-18T04:01:24.015Z,96530.71
2018-12-18T04:02:26.496Z,96529.86
2018-12-18T04:03:28.931Z,96528.56
2018-12-18T04:04:35.466Z,96539.50
2018-12-18T04:05:35.863Z,96535.28
2018-12-18T04:06:38.410Z,96530.52
2018-12-18T04:07:40.863Z,96534.42
2018-12-18T04:08:43.334Z,96535.33
2018-12-18T04:09:46.095Z,96533.73
2018-12-18T04:10:48.550Z,96540.98
2018-12-18T04:11:56.715Z,96538.86
2018-12-18T04:12:59.148Z,96539.06
2018-12-18T04:14:01.594Z,96540.16
2018-12-18T04:15:04.863Z,96547.20
2018-12-18T04:16:07.331Z,96545.58
2018-12-18T04:17:09.767Z,96550.70
2018-12-18T04:18:12.220Z,96555.59
2018-12-18T04:19:14.647Z,96556.69
2018-12-18T04:20:17.086Z,96552.86
2018-12-18T04:21:19.530Z,96557.91
2018-12-18T04:22:22.112Z,96557.58
2018-12-18T04:23:24.552Z,96555.80
2018-12-18T04:24:27.001Z,96552.90
2018-12-18T04:25:29.432Z,96552.74
2018-12-18T04:26:31.887Z,96549.39
2018-12-18T04:27:34.337Z,96552.29
2018-12-18T04:28:36.784Z,96555.58
2018-12-18T04:29:39.241Z,96550.05
2018-12-18T04:30:41.722Z,96554.86
2018-12-18T04:31:44.175Z,96549.13
2018-12-18T04:32:46.623Z,96547.73
2018-12-18T04:33:49.056Z,96550.10
2018-12-18T04:34:51.480Z,96551.64
2018-12-18T04:35:53.926Z,96546.67
2018-12-18T04:36:56.384Z,96553.39
2018-12-18T04:37:58.859Z,96553.19
2018-12-18T04:39:01.291Z,96551.64
2018-12-18T04:40:05.512Z,96544.06
2018-12-18T04:41:07.951Z,96547.98
2018-12-18T04:42:10.452Z,96551.88
2018-12-18T04:43:12.920Z,96551.56
2018-12-18T04:44:15.374Z,96543.95
2018-12-18T04:45:17.805Z,96541.67
2018-12-18T04:46:20.256Z,96540.61
2018-12-18T04:47:22.706Z,96542.45
2018-12-18T04:48:25.170Z,96543.42
2018-12-18T04:49:27.699Z,96547.41
2018-12-18T04:50:30.132Z,96537.36
2018-12-18T04:51:32.567Z,96539.20
2018-12-18T04:52:35.016Z,96540.28
2018-12-18T04:53:37.463Z,96542.03
2018-12-18T04:54:40.031Z,96540.20
2018-12-18T04:55:42.491Z,96538.90
2018-12-18T04:56:44.923Z,96537.69
2018-12-18T04:57:47.400Z,96534.84
2018-12-18T04:58:49.845Z,96547.56
2018-12-18T04:59:52.310Z,96530.23
2018-12-18T05:00:54.754Z,96529.38
2018-12-18T05:01:57.205Z,96528.84
2018-12-18T05:02:59.654Z,96530.68
2018-12-18T05:04:02.107Z,96524.94
2018-12-18T05:05:04.632Z,96529.70
2018-12-18T05:06:07.063Z,96531.53
2018-12-18T05:07:09.506Z,96529.55
2018-12-18T05:08:11.954Z,96524.82
2018-12-18T05:09:14.694Z,96529.22
2018-12-18T05:10:17.465Z,96525.31
2018-12-18T05:11:19.895Z,96519.20
2018-12-18T05:12:22.336Z,96516.88
2018-12-18T05:13:24.816Z,96525.50
2018-12-18T05:14:27.267Z,96530.07
2018-12-18T05:15:29.712Z,96529.75
2018-12-18T05:16:32.151Z,96526.32
2018-12-18T05:17:34.612Z,96527.70
2018-12-18T05:18:37.202Z,96524.66
2018-12-18T05:19:39.637Z,96524.66
2018-12-18T05:20:42.071Z,96524.41
2018-12-18T05:21:44.646Z,96526.69
2018-12-18T05:22:47.095Z,96524.41
2018-12-18T05:23:49.623Z,96529.22
2018-12-18T05:24:52.085Z,96526.12
2018-12-18T05:25:54.533Z,96516.77
2018-12-18T05:26:56.965Z,96520.14
2018-12-18T05:27:59.474Z,96523.06
2018-12-18T05:29:01.944Z,96520.63
2018-12-18T05:30:06.487Z,96519.85
2018-12-18T05:31:08.945Z,96525.91
2018-12-18T05:32:11.383Z,96531.36
2018-12-18T05:33:13.857Z,96523.02
2018-12-18T05:34:16.420Z,96528.52
2018-12-18T05:35:18.908Z,96526.92
2018-12-18T05:36:21.353Z,96526.92
2018-12-18T05:37:23.799Z,96522.33
2018-12-18T05:38:26.277Z,96529.90
2018-12-18T05:39:28.805Z,96531.20
2018-12-18T05:40:31.239Z,96526.47
2018-12-18T05:41:33.683Z,96531.89
2018-12-18T05:42:36.119Z,96532.34
2018-12-18T05:43:38.581Z,96526.92
2018-12-18T05:44:41.027Z,96533.19
2018-12-18T05:45:43.512Z,96536.89
2018-12-18T05:46:45.935Z,96529.69
2018-12-18T05:47:48.370Z,96538.56
2018-12-18T05:48:50.811Z,96538.34
2018-12-18T05:49:53.388Z,96539.86
2018-12-18T05:50:55.859Z,96545.06
2018-12-18T05:51:58.300Z,96544.53
2018-12-18T05:53:00.739Z,96542.25
2018-12-18T05:54:03.319Z,96553.44
2018-12-18T05:55:05.970Z,96542.78
2018-12-18T05:56:08.536Z,96551.13
2018-12-18T05:57:11.015Z,96557.10
2018-12-18T05:58:13.447Z,96556.13
2018-12-18T05:59:15.889Z,96547.41
2018-12-18T06:00:18.353Z,96548.02
2018-12-18T06:01:20.814Z,96552.77
2018-12-18T06:02:23.273Z,96550.70
2018-12-18T06:03:25.712Z,96548.25
2018-12-18T06:04:28.151Z,96547.51
2018-12-18T06:05:30.647Z,96549.66
2018-12-18T06:06:33.097Z,96551.94
2018-12-18T06:07:35.528Z,96550.11
2018-12-18T06:08:38.022Z,96549.02
2018-12-18T06:09:40.785Z,96545.65
2018-12-18T06:10:44.099Z,96545.19
2018-12-18T06:11:46.609Z,96545.91
2018-12-18T06:12:49.084Z,96548.52
2018-12-18T06:13:51.611Z,96541.48
2018-12-18T06:14:54.198Z,96550.80
2018-12-18T06:15:56.845Z,96550.13
2018-12-18T06:18:12.256Z,96543.86
2018-12-18T06:19:14.684Z,96545.55
2018-12-18T06:20:17.126Z,96549.97
2018-12-18T06:21:19.584Z,96542.86
2018-12-18T06:22:22.110Z,96549.50
2018-12-18T06:23:24.619Z,96546.68
2018-12-18T06:24:27.089Z,96544.16
2018-12-18T06:25:29.588Z,96545.00
2018-12-18T06:26:32.207Z,96546.06
2018-12-18T06:27:34.753Z,96548.74
2018-12-18T06:28:37.213Z,96554.51
2018-12-18T06:29:39.657Z,96554.05
2018-12-18T06:30:42.158Z,96550.36
2018-12-18T06:31:44.660Z,96553.95
2018-12-18T06:32:47.108Z,96556.94
2018-12-18T06:33:49.601Z,96562.07
2018-12-18T06:34:52.078Z,96557.95
2018-12-18T06:35:54.577Z,96556.66
2018-12-18T06:36:57.097Z,96562.07
2018-12-18T06:37:59.643Z,96560.77
2018-12-18T06:39:02.154Z,96557.95
2018-12-18T06:40:05.780Z,96562.67
2018-12-18T06:41:08.233Z,96559.02
2018-12-18T06:42:10.711Z,96557.79
2018-12-18T06:43:13.174Z,96559.02
2018-12-18T06:44:15.616Z,96562.46
2018-12-18T06:45:18.062Z,96562.46
2018-12-18T06:46:20.543Z,96556.80
2018-12-18T06:47:22.989Z,96560.25
2018-12-18T06:48:25.741Z,96553.12
2018-12-18T06:49:28.337Z,96557.80
2018-12-18T06:50:30.811Z,96552.38
2018-12-18T06:51:33.259Z,96547.18
2018-12-18T06:52:35.826Z,96553.06
2018-12-18T06:53:38.374Z,96549.41
2018-12-18T06:54:40.838Z,96549.54
2018-12-18T06:55:43.327Z,96550.14
2018-12-18T06:56:45.759Z,96548.17
2018-12-18T06:57:48.231Z,96551.83
2018-12-18T06:58:50.680Z,96553.14
2018-12-18T06:59:53.167Z,96550.78
2018-12-18T07:00:55.615Z,96548.47
2018-12-18T07:01:58.059Z,96550.61
2018-12-18T07:03:00.521Z,96549.55
2018-12-18T07:04:03.123Z,96544.36
2018-12-18T07:05:05.679Z,96543.97
2018-12-18T07:06:08.150Z,96551.45
2018-12-18T07:07:10.658Z,96548.32
2018-12-18T07:08:13.235Z,96507.95
2018-12-18T07:09:15.871Z,96543.50
2018-12-18T07:10:19.655Z,96548.95
2018-12-18T07:11:23.568Z,96546.03
2018-12-18T07:12:26.168Z,96547.54
2018-12-18T07:13:28.672Z,96544.41
2018-12-18T07:14:31.463Z,96542.90
2018-12-18T07:15:33.939Z,96544.03
2018-12-18T07:16:36.419Z,96540.83
2018-12-18T07:17:38.915Z,96546.94
2018-12-18T07:18:41.527Z,96541.34
2018-12-18T07:19:44.109Z,96546.47
2018-12-18T07:20:46.740Z,96542.25
2018-12-18T07:21:49.839Z,96543.02
2018-12-18T07:22:52.478Z,96548.76
2018-12-18T07:23:54.987Z,96542.57
2018-12-18T07:24:57.542Z,96539.97
2018-12-18T07:26:00.019Z,96546.47
2018-12-18T07:27:02.461Z,96544.64
2018-12-18T07:28:05.778Z,96544.86
2018-12-18T07:29:11.648Z,96551.99
2018-12-18T07:30:14.194Z,96551.44
2018-12-18T07:31:16.685Z,96552.20
2018-12-18T07:32:20.044Z,96557.48
2018-12-18T07:33:23.308Z,96555.89
2018-12-18T07:34:26.295Z,96559.10
2018-12-18T07:35:32.399Z,96555.44
2018-12-18T07:36:34.922Z,96554.59
2018-12-18T07:37:37.714Z,96551.99
2018-12-18T07:38:40.472Z,96555.19
2018-12-18T07:39:44.533Z,96558.11
2018-12-18T07:40:50.242Z,96553.36
2018-12-18T07:41:57.431Z,96559.02
2018-12-18T07:43:01.522Z,96553.81
2018-12-18T07:44:04.185Z,96557.47
2018-12-18T07:45:07.401Z,96555.88
2018-12-18T07:46:09.948Z,96553.66
2018-12-18T07:47:12.457Z,96549.06
2018-12-18T07:48:15.008Z,96548.84
2018-12-18T07:49:19.622Z,96554.72
2018-12-18T07:50:23.582Z,96548.74
2018-12-18T07:51:26.859Z,96554.51
2018-12-18T07:52:29.349Z,96551.13
2018-12-18T07:53:31.806Z,96549.06
2018-12-18T07:54:35.132Z,96552.75
2018-12-18T07:55:37.684Z,96554.27
2018-12-18T07:56:40.190Z,96559.47
2018-12-18T07:58:51.373Z,96557.17
2018-12-18T07:59:53.832Z,96560.56
2018-12-18T08:00:56.289Z,96554.13
2018-12-18T08:01:58.799Z,96564.53
2018-12-18T08:03:01.331Z,96553.81
2018-12-18T08:04:03.869Z,96560.77
2018-12-18T08:05:06.387Z,96559.47
2018-12-18T08:06:08.847Z,96557.32
2018-12-18T08:07:11.293Z,96566.67
2018-12-18T08:08:13.719Z,96561.75
2018-12-18T08:09:16.240Z,96564.59
2018-12-18T08:10:18.670Z,96559.92
2018-12-18T08:11:21.136Z,96563.61
2018-12-18T08:12:25.373Z,96561.75
2018-12-18T08:13:27.820Z,96562.69
2018-12-18T08:14:30.280Z,96561.52
2018-12-18T08:15:32.826Z,96559.13
2018-12-18T08:16:35.279Z,96559.53
2018-12-18T08:17:37.707Z,96553.58
2018-12-18T08:18:40.147Z,96555.23
2018-12-18T08:19:42.586Z,96549.10
2018-12-18T08:20:46.243Z,96556.17
2018-12-18T08:21:48.911Z,96557.07
2018-12-18T08:22:51.380Z,96553.83
2018-12-18T08:23:53.820Z,96550.70
2018-12-18T08:24:56.361Z,96552.24
2018-12-18T08:25:58.802Z,96550.30
2018-12-18T08:27:01.325Z,96549.16
2018-12-18T08:28:03.791Z,96547.30
2018-12-18T08:29:06.215Z,96540.50
2018-12-18T08:30:08.744Z,96542.47
2018-12-18T08:31:11.176Z,96545.31
2018-12-18T08:32:13.631Z,96541.08
2018-12-18T08:33:16.181Z,96537.95
2018-12-18T08:34:18.645Z,96544.14
2018-12-18T08:35:21.090Z,96539.63
2018-12-18T08:36:23.548Z,96546.34
2018-12-18T08:37:26.012Z,96547.11
2018-12-18T08:38:28.477Z,96542.23
2018-12-18T08:39:30.905Z,96541.13
2018-12-18T08:40:33.343Z,96542.80
2018-12-18T08:41:35.793Z,96534.38
2018-12-18T08:42:38.249Z,96537.67
2018-12-18T08:43:40.728Z,96534.06
2018-12-18T08:44:43.161Z,96525.50
2018-12-18T08:45:45.678Z,96519.89
2018-12-18T08:46:48.132Z,96523.61
2018-12-18T08:47:50.720Z,96518.84
2018-12-18T08:48:53.215Z,96521.31
2018-12-18T08:49:55.645Z,96512.20
2018-12-18T08:50:58.104Z,96517.41
2018-12-18T08:52:00.545Z,96514.73
2018-12-18T08:53:03.087Z,96522.98
2018-12-18T08:54:05.547Z,96520.66
2018-12-18T08:55:08.067Z,96514.77
2018-12-18T08:56:10.509Z,96521.28
2018-12-18T08:57:13.023Z,96518.67
2018-12-18T08:58:15.555Z,96518.59
2018-12-18T08:59:18.008Z,96518.06
2018-12-18T09:00:20.568Z,96517.41
2018-12-18T09:01:23.012Z,96515.49
2018-12-18T09:02:25.464Z,96518.99
2018-12-18T09:03:27.924Z,96512.52
2018-12-18T09:04:30.384Z,96510.83
2018-12-18T09:05:32.821Z,96520.84
2018-12-18T09:06:35.264Z,96515.63
2018-12-18T09:07:37.703Z,96517.14
2018-12-18T09:08:40.160Z,96511.31
2018-12-18T09:09:42.622Z,96510.37
2018-12-18T09:10:45.082Z,96499.94
2018-12-18T09:11:47.520Z,96501.16
2018-12-18T09:12:49.948Z,96499.00
2018-12-18T09:13:52.392Z,96498.46
2018-12-18T09:14:56.644Z,96497.04
2018-12-18T09:15:59.103Z,96493.81
2018-12-18T09:17:02.786Z,96499.02
2018-12-18T09:18:05.227Z,96499.70
2018-12-18T09:19:07.675Z,96501.45
2018-12-18T09:20:10.133Z,96499.05
2018-12-18T09:21:12.641Z,96498.75
2018-12-18T09:22:15.074Z,96495.08
2018-12-18T09:23:17.507Z,96495.64
2018-12-18T09:24:19.960Z,96488.35
2018-12-18T09:25:22.493Z,96487.58
2018-12-18T09:26:24.930Z,96483.44
2018-12-18T09:27:27.391Z,96481.73
2018-12-18T09:28:29.837Z,96477.50
2018-12-18T09:29:33.017Z,96476.31
2018-12-18T09:30:35.709Z,96476.55
2018-12-18T09:31:39.931Z,96476.56
2018-12-18T09:32:42.375Z,96479.41
2018-12-18T09:33:44.820Z,96473.75
2018-12-18T09:34:47.481Z,96465.36
2018-12-18T09:35:50.033Z,96467.67
2018-12-18T09:36:52.581Z,96465.81
2018-12-18T09:39:36.609Z,96464.42
2018-12-18T09:40:44.842Z,96463.59
2018-12-18T09:41:47.283Z,96467.08
2018-12-18T09:42:55.323Z,96461.53
2018-12-18T09:43:59.749Z,96467.53
2018-12-18T09:45:02.357Z,96462.75
2018-12-18T09:46:04.843Z,96466.78
2018-12-18T09:47:07.471Z,96466.69
2018-12-18T09:48:09.905Z,96467.55
2018-12-18T09:49:12.339Z,96464.94
2018-12-18T09:50:14.800Z,96462.70
2018-12-18T09:51:17.418Z,96462.17
2018-12-18T09:52:19.887Z,96465.02
2018-12-18T09:53:22.319Z,96461.97
2018-12-18T09:54:24.763Z,96456.95
2018-12-18T09:55:27.249Z,96453.58
2018-12-18T09:56:31.766Z,96451.64
2018-12-18T09:57:40.058Z,96449.37
2018-12-18T09:58:42.534Z,96449.91
2018-12-18T09:59:45.086Z,96443.95
2018-12-18T10:00:47.584Z,96446.89
2018-12-18T10:01:50.097Z,96435.05
2018-12-18T10:02:52.546Z,96436.12
2018-12-18T10:03:55.114Z,96438.30
2018-12-18T10:04:57.616Z,96436.35
2018-12-18T10:06:00.129Z,96436.98
2018-12-18T10:07:02.596Z,96438.53
2018-12-18T10:08:05.087Z,96433.73
2018-12-18T10:09:09.791Z,96434.17
2018-12-18T10:10:12.187Z,96439.39
2018-12-18T10:11:14.798Z,96437.55
2018-12-18T10:12:19.693Z,96438.95
2018-12-18T10:13:22.147Z,96438.11
2018-12-18T10:14:24.631Z,96429.84
2018-12-18T10:15:27.302Z,96435.70
2018-12-18T10:16:29.742Z,96433.75
2018-12-18T10:17:32.215Z,96427.55
2018-12-18T10:18:34.827Z,96429.28
2018-12-18T10:19:37.366Z,96426.34
2018-12-18T10:20:39.917Z,96419.18
2018-12-18T10:21:42.365Z,96418.08
2018-12-18T10:22:44.828Z,96416.77
2018-12-18T10:23:47.277Z,96418.08
2018-12-18T10:24:49.706Z,96416.77
2018-12-18T10:25:52.152Z,96418.08
2018-12-18T10:26:54.579Z,96414.25
2018-12-18T10:27:57.047Z,96408.61
2018-12-18T10:28:59.484Z,96413.05
2018-12-18T10:30:01.945Z,96408.49
2018-12-18T10:31:04.426Z,96408.05
2018-12-18T10:32:06.912Z,96410.55
2018-12-18T10:33:09.446Z,96410.63
2018-12-18T10:34:11.909Z,96408.98
2018-12-18T10:35:14.471Z,96414.20
2018-12-18T10:36:16.952Z,96411.47
2018-12-18T10:37:20.083Z,96408.75
2018-12-18T10:38:22.536Z,96414.49
2018-12-18T10:39:25.004Z,96419.50
2018-12-18T10:40:27.439Z,96410.69
2018-12-18T10:41:29.867Z,96406.85
2018-12-18T10:42:32.308Z,96402.91
2018-12-18T10:43:34.757Z,96403.11
2018-12-18T10:44:37.210Z,96400.80
2018-12-18T10:45:39.660Z,96401.73
2018-12-18T10:46:42.115Z,96396.81
2018-12-18T10:47:44.546Z,96398.66
2018-12-18T10:48:47.020Z,96394.27
2018-12-18T10:49:49.456Z,96389.70
2018-12-18T10:50:51.888Z,96391.66
2018-12-18T10:51:54.323Z,96395.81
2018-12-18T10:52:56.908Z,96391.42
2018-12-18T10:53:59.355Z,96392.34
2018-12-18T10:55:01.846Z,96396.58
2018-12-18T10:56:04.289Z,96391.71
2018-12-18T10:57:06.752Z,96383.34
2018-12-18T10:58:09.199Z,96382.79
2018-12-18T10:59:11.662Z,96383.16
2018-12-18T11:00:16.115Z,96385.45
2018-12-18T11:02:51.308Z,96379.25
2018-12-18T11:03:53.736Z,96376.91
2018-12-18T11:04:56.181Z,96372.34
2018-12-18T11:05:58.619Z,96377.38
2018-12-18T11:07:01.073Z,96370.40
2018-12-18T11:08:03.524Z,96373.52
2018-12-18T11:09:08.475Z,96368.62
2018-12-18T11:10:10.924Z,96367.45
2018-12-18T11:11:13.426Z,96366.90
2018-12-18T11:12:17.850Z,96369.72
2018-12-18T11:13:20.299Z,96362.74
2018-12-18T11:14:22.730Z,96364.91
2018-12-18T11:15:25.184Z,96357.36
2018-12-18T11:16:27.626Z,96364.91
2018-12-18T11:17:30.068Z,96358.53
2018-12-18T11:18:32.525Z,96356.94
2018-12-18T11:19:34.982Z,96360.82
2018-12-18T11:20:37.447Z,96356.26
2018-12-18T11:21:39.886Z,96353.58
2018-12-18T11:22:42.323Z,96356.48
2018-12-18T11:23:44.763Z,96357.52
2018-12-18T11:24:47.263Z,96359.02
2018-12-18T11:25:49.754Z,96353.23
2018-12-18T11:26:52.719Z,96349.16
2018-12-18T11:27:55.399Z,96351.16
2018-12-18T11:28:57.930Z,96350.84
2018-12-18T11:30:00.377Z,96347.68
2018-12-18T11:31:02.825Z,96344.92
2018-12-18T11:32:05.303Z,96342.78
2018-12-18T11:33:07.765Z,96341.38
2018-12-18T11:34:10.211Z,96344.61
2018-12-18T11:35:12.664Z,96338.89
2018-12-18T11:36:16.714Z,96331.70
2018-12-18T11:37:19.567Z,96330.88
2018-12-18T11:38:22.124Z,96330.97
2018-12-18T11:39:24.577Z,96326.13
2018-12-18T11:40:27.025Z,96318.84
2018-12-18T11:41:29.491Z,96312.77
2018-12-18T11:42:31.966Z,96317.93
2018-12-18T11:43:34.439Z,96308.14
2018-12-18T11:44:37.353Z,96304.37
2018-12-18T11:45:39.808Z,96300.25
2018-12-18T11:46:42.288Z,96301.73
2018-12-18T11:47:44.745Z,96298.73
2018-12-18T11:48:47.199Z,96298.47
2018-12-18T11:49:49.649Z,96293.94
2018-12-18T11:50:52.120Z,96297.44
2018-12-18T11:51:54.611Z,96298.27
2018-12-18T11:52:57.079Z,96291.03
2018-12-18T11:53:59.551Z,96285.80
2018-12-18T11:55:02.021Z,96287.55
2018-12-18T11:56:04.679Z,96287.12
2018-12-18T11:57:07.180Z,96281.95
2018-12-18T11:58:09.628Z,96278.00
2018-12-18T11:59:12.077Z,96273.98
2018-12-18T12:00:16.070Z,96271.98
2018-12-18T12:01:18.517Z,96272.94
2018-12-18T12:02:21.014Z,96274.46
2018-12-18T12:03:23.489Z,96263.30
2018-12-18T12:04:25.973Z,96262.84
2018-12-18T12:05:28.427Z,96263.16
2018-12-18T12:06:30.900Z,96254.58
2018-12-18T12:07:33.355Z,96259.22
2018-12-18T12:08:35.818Z,96250.02
2018-12-18T12:09:38.290Z,96258.45
2018-12-18T12:10:42.216Z,96265.03
2018-12-18T12:11:45.735Z,96257.54
2018-12-18T12:12:48.259Z,96262.46
2018-12-18T12:13:50.931Z,96258.83
2018-12-18T12:14:53.571Z,96255.40
2018-12-18T12:15:56.070Z,96251.58
2018-12-18T12:16:58.545Z,96248.70
2018-12-18T12:18:01.235Z,96244.15
2018-12-18T12:19:03.706Z,96241.42
2018-12-18T12:20:06.590Z,96231.94
2018-12-18T12:21:09.032Z,96218.52